EDT,Max TemperatureF,Mean TemperatureF,Min TemperatureF,Max Dew PointF,MeanDew PointF,Min DewpointF,Max Humidity, Mean Humidity, Min Humidity, Max Sea Level PressureIn, Mean Sea Level PressureIn, Min Sea Level PressureIn, Max VisibilityMiles, Mean VisibilityMiles, Min VisibilityMiles, Max Wind SpeedMPH, Mean Wind SpeedMPH, Max Gust SpeedMPH,PrecipitationIn, CloudCover, Events, WindDirDegrees
2012-9-1,89,82,76,76,73,66,90,78,46,30.09,30.05,30.00,10,10,10,9,5,,0.00,0,,257
2012-9-2,88,82,77,75,73,68,90,77,53,30.03,30.00,29.96,10,10,7,8,1,,0.00,0,,200
2012-9-3,83,78,73,76,73,71,94,84,69,30.08,30.03,30.00,10,10,2,14,1,21,0.17,1,Rain,160
2012-9-4,85,81,77,75,73,71,92,80,63,30.05,30.00,29.95,10,10,10,9,3,,0.00,0,,194
2012-9-5,88,82,75,74,71,67,87,71,48,29.97,29.92,29.86,10,10,10,13,8,18,0.00,0,,225
2012-9-6,89,80,72,76,72,69,95,80,52,29.94,29.91,29.86,10,9,1,14,8,22,0.62,1,Rain,224
2012-9-7,82,77,72,74,72,70,94,86,73,29.96,29.91,29.87,10,8,4,7,3,,0.13,2,Rain,157
2012-9-8,86,80,75,74,73,70,92,81,63,29.87,29.80,29.73,10,10,5,13,5,20,0.01,0,Rain,205
2012-9-9,78,72,67,75,64,56,95,79,58,29.91,29.82,29.75,10,9,1,10,6,24,0.70,4,Rain,353
2012-9-10,96,81,66,61,56,51,76,61,27,30.13,30.00,29.83,10,10,10,14,6,23,0.00,0,,342
2012-9-11,73,70,66,55,50,47,65,51,39,30.29,30.23,30.13,10,10,10,12,4,18,0.00,2,,8
2012-9-12,74,70,66,60,54,48,71,57,49,30.35,30.31,30.27,10,10,10,9,4,,0.00,0,,56
2012-9-13,78,74,69,68,65,60,82,73,67,30.31,30.28,30.24,10,10,5,12,6,18,0.00,1,,52
2012-9-14,78,74,69,69,66,63,87,76,64,30.24,30.18,30.13,10,10,10,10,5,17,0.00,3,Rain,56
2012-9-15,77,72,68,68,61,50,95,72,48,30.13,30.12,30.09,10,10,10,12,3,22,0.00,0,,349
2012-9-16,75,70,66,57,52,47,64,52,37,30.16,30.12,30.09,10,10,10,7,3,,0.00,1,,29
2012-9-17,78,72,66,69,62,56,92,68,55,30.12,30.08,30.03,10,10,5,10,3,,0.04,3,Rain,135
2012-9-18,81,76,71,73,70,68,94,82,67,30.01,29.88,29.79,10,9,5,16,8,28,0.22,1,Rain,174
2012-9-19,73,70,68,72,62,55,95,75,58,30.09,29.98,29.82,10,10,5,13,7,24,0.20,3,Rain,7
2012-9-20,73,70,67,61,59,57,79,69,63,30.11,30.07,30.04,10,10,10,12,8,20,0.00,1,,19
2012-9-21,73,68,63,62,60,56,90,75,54,30.08,30.04,30.01,10,10,4,9,2,,0.00,0,,360
2012-9-22,79,72,64,66,64,62,93,78,58,30.03,29.98,29.92,10,10,10,9,3,16,0.00,0,,210
2012-9-23,72,68,64,67,57,49,89,66,50,30.12,30.03,29.94,10,10,10,14,8,24,0.00,1,,352
2012-9-24,69,64,58,50,44,38,61,47,35,30.21,30.15,30.09,10,10,10,10,5,16,0.00,0,,25
2012-9-25,72,65,58,57,48,42,70,53,36,30.26,30.22,30.18,10,10,10,8,2,,0.00,0,,120
2012-9-26,78,71,64,65,58,54,87,65,44,30.23,30.19,30.16,10,10,10,7,2,,0.00,0,,179
2012-9-27,79,72,65,67,64,58,94,78,49,30.20,30.15,30.10,10,10,10,7,2,,0.00,0,,159
2012-9-28,80,73,66,68,65,62,96,79,54,30.11,30.04,29.98,10,10,10,7,2,,0.00,0,,213
2012-9-29,71,66,62,68,63,60,94,84,67,29.99,29.94,29.89,10,9,2,8,4,,0.11,2,Rain,12
2012-9-30,70,65,60,61,57,53,94,75,58,29.91,29.88,29.84,10,10,7,10,3,18,0.33,3,Rain,32